createdAt,value
2023-02-28T00:00:52.351Z,8.80
2023-02-28T00:03:24.904Z,6.87
2023-02-28T00:05:56.829Z,7.70
2023-02-28T00:08:29.866Z,8.30
2023-02-28T00:11:13.745Z,7.32
2023-02-28T00:13:48.312Z,7.43
2023-02-28T00:16:22.963Z,7.13
2023-02-28T00:18:55.568Z,8.13
2023-02-28T00:21:28.073Z,6.53
2023-02-28T00:24:00.799Z,7.82
2023-02-28T00:26:32.700Z,7.70
2023-02-28T00:29:05.358Z,7.97
2023-02-28T00:31:37.244Z,8.35
2023-02-28T00:34:10.212Z,7.22
2023-02-28T00:36:46.258Z,7.57
2023-02-28T00:39:18.851Z,9.35
2023-02-28T00:41:50.760Z,9.53
2023-02-28T00:44:23.389Z,7.80
2023-02-28T00:46:56.453Z,7.22
2023-02-28T00:49:30.543Z,9.00
2023-02-28T00:52:02.506Z,7.53
2023-02-28T00:54:35.579Z,8.50
2023-02-28T00:57:07.495Z,8.25
2023-02-28T00:59:40.049Z,10.90
2023-02-28T01:02:12.546Z,9.02
2023-02-28T01:04:45.519Z,8.00
2023-02-28T01:07:17.533Z,7.50
2023-02-28T01:09:50.460Z,9.48
2023-02-28T01:12:22.346Z,10.38
2023-02-28T01:14:54.979Z,9.65
2023-02-28T01:17:27.497Z,9.80
2023-02-28T01:20:00.168Z,8.83
2023-02-28T01:22:32.116Z,8.13
2023-02-28T01:25:05.171Z,8.93
2023-02-28T01:27:37.240Z,7.90
2023-02-28T01:30:11.192Z,8.43
2023-02-28T01:32:43.428Z,7.37
2023-02-28T01:35:15.370Z,7.72
2023-02-28T01:37:47.926Z,9.65
2023-02-28T01:40:20.285Z,8.07
2023-02-28T01:42:52.879Z,8.75
2023-02-28T01:45:30.568Z,8.23
2023-02-28T01:48:08.990Z,9.63
2023-02-28T01:50:44.940Z,8.68
2023-02-28T01:53:30.855Z,7.65
2023-02-28T01:56:08.079Z,8.98
2023-02-28T01:58:41.211Z,9.20
2023-02-28T02:01:22.612Z,7.50
2023-02-28T02:04:00.161Z,9.55
2023-02-28T02:06:41.642Z,7.70
2023-02-28T02:09:16.299Z,8.00
2023-02-28T02:11:48.517Z,6.53
2023-02-28T02:14:38.864Z,8.32
2023-02-28T02:17:35.334Z,8.52
2023-02-28T02:20:23.720Z,9.30
2023-02-28T02:23:20.233Z,9.30
2023-02-28T02:26:13.255Z,7.23
2023-02-28T02:29:34.355Z,8.05
2023-02-28T02:32:50.029Z,7.93
2023-02-28T02:36:08.784Z,8.75
2023-02-28T02:38:55.360Z,6.90
2023-02-28T02:41:54.773Z,9.43
2023-02-28T02:44:46.058Z,9.32
2023-02-28T02:47:22.652Z,8.75
2023-02-28T02:49:58.991Z,9.90
2023-02-28T02:52:46.453Z,6.97
2023-02-28T02:55:21.942Z,8.20
2023-02-28T02:58:09.105Z,11.30
2023-02-28T03:00:48.307Z,7.40
2023-02-28T03:03:29.956Z,10.73
2023-02-28T03:06:04.500Z,8.88
2023-02-28T03:08:39.451Z,8.60
2023-02-28T03:11:15.881Z,8.88
2023-02-28T03:14:31.179Z,7.65
2023-02-28T03:17:41.352Z,9.70
2023-02-28T03:21:19.035Z,7.88
2023-02-28T03:24:11.775Z,9.17
2023-02-28T03:26:51.905Z,8.88
2023-02-28T03:29:34.788Z,10.40
2023-02-28T03:32:40.122Z,9.00
2023-02-28T03:35:23.215Z,7.15
2023-02-28T03:38:07.980Z,8.37
2023-02-28T03:40:48.910Z,8.18
2023-02-28T03:43:27.400Z,8.88
2023-02-28T03:46:05.147Z,9.48
2023-02-28T03:48:54.413Z,7.78
2023-02-28T03:51:29.474Z,6.40
2023-02-28T03:54:11.200Z,8.73
2023-02-28T03:57:04.517Z,9.85
2023-02-28T03:59:43.527Z,7.35
2023-02-28T04:02:16.316Z,7.30
2023-02-28T04:04:49.617Z,7.43
2023-02-28T04:07:22.797Z,7.72
2023-02-28T04:09:54.715Z,8.30
2023-02-28T04:12:27.587Z,7.60
2023-02-28T04:14:59.494Z,8.77
2023-02-28T04:17:32.122Z,7.17
2023-02-28T04:20:10.115Z,8.07
2023-02-28T04:22:42.687Z,7.88
2023-02-28T04:25:15.744Z,7.95
2023-02-28T04:27:48.328Z,10.88
2023-02-28T04:30:20.296Z,8.80
2023-02-28T04:32:52.952Z,6.60
2023-02-28T04:35:24.947Z,7.45
2023-02-28T04:37:57.599Z,9.40
2023-02-28T04:40:29.728Z,9.02
2023-02-28T04:43:02.276Z,9.77
2023-02-28T04:45:34.830Z,10.20
2023-02-28T04:48:07.526Z,8.77
2023-02-28T04:50:39.426Z,12.02
2023-02-28T04:53:12.013Z,7.40
2023-02-28T04:55:44.026Z,8.00
2023-02-28T04:58:16.605Z,9.85
2023-02-28T05:00:48.492Z,8.95
2023-02-28T05:03:23.405Z,9.43
2023-02-28T05:05:55.291Z,7.88
2023-02-28T05:08:27.902Z,9.13
2023-02-28T05:11:01.784Z,9.00
2023-02-28T05:13:34.338Z,9.38
2023-02-28T05:16:06.896Z,10.57
2023-02-28T05:18:40.216Z,12.18
2023-02-28T05:21:27.976Z,9.83
2023-02-28T05:24:07.041Z,8.35
2023-02-28T05:26:42.884Z,8.80
2023-02-28T05:29:15.488Z,12.63
2023-02-28T05:31:48.240Z,9.00
2023-02-28T05:34:21.333Z,10.47
2023-02-28T05:36:53.266Z,13.25
2023-02-28T05:39:26.238Z,9.30
2023-02-28T05:41:58.282Z,12.32
2023-02-28T05:44:31.009Z,9.38
2023-02-28T05:47:03.378Z,9.93
2023-02-28T05:49:36.579Z,11.20
2023-02-28T05:52:09.047Z,10.50
2023-02-28T05:54:41.760Z,10.63
2023-02-28T05:57:22.860Z,10.32
2023-02-28T05:59:57.115Z,9.10
2023-02-28T06:02:29.243Z,10.05
2023-02-28T06:05:02.315Z,10.55
2023-02-28T06:07:34.722Z,12.85
2023-02-28T06:10:08.140Z,10.68
2023-02-28T06:12:42.509Z,14.87
2023-02-28T06:15:16.909Z,10.93
2023-02-28T06:17:48.956Z,12.05
2023-02-28T06:20:21.557Z,11.05
2023-02-28T06:22:55.408Z,11.02
2023-02-28T06:25:29.042Z,12.83
2023-02-28T06:28:01.022Z,13.63
2023-02-28T06:30:35.077Z,12.27
2023-02-28T06:33:07.371Z,10.32
2023-02-28T06:35:40.032Z,15.93
2023-02-28T06:38:12.679Z,10.13
2023-02-28T06:40:46.372Z,11.75
2023-02-28T06:43:18.300Z,12.85
2023-02-28T06:45:51.396Z,11.98
2023-02-28T06:48:24.408Z,13.30
2023-02-28T06:51:11.722Z,27.77
2023-02-28T06:53:45.185Z,15.43
2023-02-28T06:56:19.156Z,16.98
2023-02-28T06:58:54.111Z,11.95
2023-02-28T07:01:26.368Z,10.07
2023-02-28T07:03:59.025Z,11.90
2023-02-28T07:06:31.014Z,10.60
2023-02-28T07:09:05.299Z,14.82
2023-02-28T07:11:37.234Z,14.20
2023-02-28T07:14:10.027Z,11.95
2023-02-28T07:16:41.987Z,9.80
2023-02-28T07:19:14.548Z,10.80
2023-02-28T07:21:46.457Z,14.10
2023-02-28T07:24:19.358Z,10.13
2023-02-28T07:26:51.248Z,11.98
2023-02-28T07:29:24.063Z,12.07
2023-02-28T07:31:56.088Z,16.65
2023-02-28T07:34:28.693Z,13.75
2023-02-28T07:37:04.576Z,11.18
2023-02-28T07:39:37.292Z,14.05
2023-02-28T07:42:12.257Z,13.33
2023-02-28T07:44:45.235Z,10.88
2023-02-28T07:47:17.179Z,13.35
2023-02-28T07:49:50.163Z,13.52
2023-02-28T07:52:24.267Z,17.35
2023-02-28T07:54:56.864Z,14.53
2023-02-28T07:57:28.810Z,11.55
2023-02-28T08:00:01.904Z,12.32
2023-02-28T08:02:43.925Z,11.65
2023-02-28T08:05:16.016Z,13.63
2023-02-28T08:07:50.936Z,12.03
2023-02-28T08:10:23.300Z,12.63
2023-02-28T08:12:55.913Z,12.02
2023-02-28T08:15:28.331Z,13.82
2023-02-28T08:18:00.901Z,11.13
2023-02-28T08:20:32.850Z,13.60
2023-02-28T08:23:05.876Z,13.18
2023-02-28T08:25:37.852Z,12.90
2023-02-28T08:28:10.438Z,15.05
2023-02-28T08:30:42.489Z,10.90
2023-02-28T08:33:15.103Z,13.73
2023-02-28T08:35:47.026Z,13.05
2023-02-28T08:38:19.659Z,11.25
2023-02-28T08:40:59.636Z,10.25
2023-02-28T08:43:32.682Z,11.68
2023-02-28T08:46:11.792Z,12.70
2023-02-28T08:48:45.364Z,10.07
2023-02-28T08:51:22.408Z,10.55
2023-02-28T08:53:59.470Z,12.32
2023-02-28T08:56:31.709Z,15.73
2023-02-28T08:59:04.375Z,9.97
2023-02-28T09:01:37.579Z,16.23
2023-02-28T09:04:13.283Z,13.57
2023-02-28T09:06:49.594Z,10.45
2023-02-28T09:09:21.900Z,14.15
2023-02-28T09:11:56.761Z,18.60
2023-02-28T09:14:29.102Z,13.40
2023-02-28T09:17:01.588Z,14.30
2023-02-28T09:19:33.993Z,10.77
2023-02-28T09:22:06.645Z,11.77
2023-02-28T09:27:17.169Z,10.15
2023-02-28T09:29:49.157Z,12.55
2023-02-28T09:32:21.942Z,11.07
2023-02-28T09:34:54.618Z,10.07
2023-02-28T09:37:31.858Z,11.07
2023-02-28T09:40:04.829Z,11.27
2023-02-28T09:42:37.095Z,13.98
2023-02-28T09:45:28.354Z,11.60
2023-02-28T09:48:08.139Z,10.52
2023-02-28T09:50:53.174Z,12.30
2023-02-28T09:53:37.380Z,12.35
2023-02-28T09:56:27.521Z,10.55
2023-02-28T09:59:33.306Z,11.13
2023-02-28T10:02:22.796Z,12.43
2023-02-28T10:05:08.022Z,12.88
2023-02-28T10:07:40.911Z,13.13
2023-02-28T10:10:26.921Z,12.88
2023-02-28T10:13:02.571Z,12.15
2023-02-28T10:15:36.433Z,12.13
2023-02-28T10:18:18.088Z,15.25
2023-02-28T10:20:51.316Z,15.98
2023-02-28T10:23:28.047Z,11.82
2023-02-28T10:26:14.157Z,12.27
2023-02-28T10:28:47.171Z,10.75
2023-02-28T10:31:20.781Z,17.40
2023-02-28T10:33:53.401Z,10.48
2023-02-28T10:36:25.802Z,10.63
2023-02-28T10:39:01.542Z,16.48
2023-02-28T10:41:37.441Z,10.15
2023-02-28T10:44:24.281Z,10.23
2023-02-28T10:46:57.629Z,12.87
2023-02-28T10:49:30.689Z,13.68
2023-02-28T10:52:02.648Z,11.10
2023-02-28T10:54:39.135Z,11.07
2023-02-28T10:57:21.829Z,9.30
2023-02-28T11:00:15.218Z,10.73
2023-02-28T11:02:47.483Z,9.38
2023-02-28T11:05:30.702Z,13.73
2023-02-28T11:08:16.983Z,11.07
2023-02-28T11:10:56.952Z,10.68
2023-02-28T11:13:39.153Z,12.80
2023-02-28T11:16:14.707Z,8.82
2023-02-28T11:18:57.226Z,10.10
2023-02-28T11:21:35.826Z,11.15
2023-02-28T11:24:31.276Z,12.52
2023-02-28T11:27:03.815Z,10.00
2023-02-28T11:29:41.286Z,11.38
2023-02-28T11:32:21.647Z,10.48
2023-02-28T11:35:12.661Z,10.27
2023-02-28T11:37:46.837Z,10.73
2023-02-28T11:40:47.501Z,11.00
2023-02-28T11:44:16.835Z,11.43
2023-02-28T11:46:53.213Z,10.98
2023-02-28T11:49:43.930Z,12.63
2023-02-28T11:52:55.223Z,10.98
2023-02-28T11:55:40.298Z,12.13
2023-02-28T11:58:32.744Z,12.85
2023-02-28T12:01:35.693Z,13.82
2023-02-28T12:04:37.858Z,11.23
2023-02-28T12:07:56.344Z,13.17
2023-02-28T12:10:36.541Z,13.63
2023-02-28T12:13:50.103Z,12.98
2023-02-28T12:16:46.803Z,12.63
2023-02-28T12:19:34.496Z,14.98
2023-02-28T12:22:31.443Z,12.07
2023-02-28T12:25:23.713Z,12.63
2023-02-28T12:27:56.311Z,13.30
2023-02-28T12:30:44.692Z,12.20
2023-02-28T12:33:23.115Z,13.98
2023-02-28T12:36:03.455Z,14.30
2023-02-28T12:38:47.985Z,13.85
2023-02-28T12:41:53.924Z,11.82
2023-02-28T12:44:49.367Z,16.73
2023-02-28T12:47:21.380Z,15.55
2023-02-28T12:50:08.150Z,16.47
2023-02-28T12:53:04.850Z,13.25
2023-02-28T12:55:55.585Z,16.20
2023-02-28T12:58:37.403Z,13.73
2023-02-28T13:01:29.328Z,13.00
2023-02-28T13:04:47.480Z,14.57
2023-02-28T13:07:56.512Z,13.02
2023-02-28T13:10:42.297Z,12.73
2023-02-28T13:13:21.673Z,16.30
2023-02-28T13:16:08.998Z,13.75
2023-02-28T13:18:46.225Z,12.50
2023-02-28T13:21:30.484Z,12.55
2023-02-28T13:24:05.396Z,12.23
2023-02-28T13:26:37.843Z,15.93
2023-02-28T13:29:16.799Z,14.32
2023-02-28T13:32:31.609Z,12.93
2023-02-28T13:35:06.778Z,15.57
2023-02-28T13:37:45.164Z,14.00
2023-02-28T13:40:40.954Z,13.75
2023-02-28T13:43:22.585Z,15.82
2023-02-28T13:46:14.366Z,16.23
2023-02-28T13:48:46.802Z,12.85
2023-02-28T13:51:44.539Z,13.88
2023-02-28T13:55:12.719Z,14.57
2023-02-28T13:57:55.164Z,12.25
2023-02-28T14:00:44.072Z,17.40
2023-02-28T14:03:38.892Z,12.63
2023-02-28T14:06:33.702Z,14.30
2023-02-28T14:09:27.119Z,15.75
2023-02-28T14:12:56.050Z,13.55
2023-02-28T14:15:39.418Z,16.77
2023-02-28T14:18:27.065Z,15.85
2023-02-28T14:21:08.935Z,14.25
2023-02-28T14:23:56.857Z,13.82
2023-02-28T14:26:57.176Z,16.70
2023-02-28T14:29:50.980Z,14.30
2023-02-28T14:32:56.603Z,15.68
2023-02-28T14:35:41.482Z,13.43
2023-02-28T14:38:25.198Z,15.27
2023-02-28T14:41:02.223Z,16.13
2023-02-28T14:43:34.589Z,14.23
2023-02-28T14:46:08.107Z,14.90
2023-02-28T14:48:40.672Z,15.95
2023-02-28T14:51:19.849Z,13.77
2023-02-28T14:54:00.957Z,14.07
2023-02-28T14:56:39.965Z,17.00
2023-02-28T14:59:34.851Z,15.13
2023-02-28T15:02:26.336Z,16.08
2023-02-28T15:05:02.214Z,13.93
2023-02-28T15:07:35.281Z,14.02
2023-02-28T15:10:26.057Z,16.43
2023-02-28T15:13:03.663Z,15.23
2023-02-28T15:16:02.256Z,13.90
2023-02-28T15:19:00.510Z,14.57
2023-02-28T15:21:39.688Z,17.10
2023-02-28T15:24:44.557Z,14.67
2023-02-28T15:27:27.842Z,14.55
2023-02-28T15:30:06.696Z,14.48
2023-02-28T15:32:41.180Z,19.27
2023-02-28T15:35:32.545Z,14.90
2023-02-28T15:38:27.426Z,16.03
2023-02-28T15:41:00.640Z,17.63
2023-02-28T15:43:36.120Z,14.93
2023-02-28T15:46:15.533Z,16.73
2023-02-28T15:48:57.694Z,16.90
2023-02-28T15:51:37.800Z,16.70
2023-02-28T15:54:21.638Z,18.00
2023-02-28T15:56:57.852Z,17.33
2023-02-28T15:59:31.513Z,17.25
2023-02-28T16:02:22.524Z,19.15
2023-02-28T16:05:17.871Z,17.80
2023-02-28T16:07:50.219Z,15.80
2023-02-28T16:10:26.100Z,17.30
2023-02-28T16:12:59.318Z,18.05
2023-02-28T16:15:43.235Z,20.75
2023-02-28T16:18:15.902Z,18.93
2023-02-28T16:20:48.259Z,17.05
2023-02-28T16:23:20.851Z,16.48
2023-02-28T16:25:53.120Z,15.40
2023-02-28T16:28:32.463Z,14.63
2023-02-28T16:31:07.875Z,15.87
2023-02-28T16:33:40.469Z,17.23
2023-02-28T16:36:28.588Z,18.05
2023-02-28T16:39:02.887Z,14.82
2023-02-28T16:41:35.825Z,19.42
2023-02-28T16:44:15.785Z,21.23
2023-02-28T16:46:47.740Z,18.58
2023-02-28T16:49:20.408Z,20.13
2023-02-28T16:51:52.351Z,16.13
2023-02-28T16:54:25.055Z,19.50
2023-02-28T16:56:57.421Z,15.10
2023-02-28T16:59:30.391Z,16.00
2023-02-28T17:02:03.070Z,16.50
2023-02-28T17:04:35.063Z,18.08
2023-02-28T17:07:14.502Z,16.77
2023-02-28T17:09:46.948Z,20.63
2023-02-28T17:12:19.561Z,16.92
2023-02-28T17:14:51.551Z,19.45
2023-02-28T17:17:24.172Z,15.18
2023-02-28T17:19:56.081Z,19.42
2023-02-28T17:22:28.727Z,19.80
2023-02-28T17:25:00.679Z,18.17
2023-02-28T17:27:36.197Z,18.52
2023-02-28T17:30:28.673Z,16.88
2023-02-28T17:33:01.490Z,19.17
2023-02-28T17:35:33.394Z,15.97
2023-02-28T17:38:05.940Z,21.55
2023-02-28T17:40:38.818Z,18.92
2023-02-28T17:43:11.897Z,17.35
2023-02-28T17:45:43.891Z,17.23
2023-02-28T17:48:16.488Z,17.20
2023-02-28T17:50:48.475Z,18.80
2023-02-28T17:53:24.267Z,18.02
2023-02-28T17:55:56.245Z,18.75
2023-02-28T17:58:29.240Z,19.20
2023-02-28T18:01:01.581Z,20.53
2023-02-28T18:03:34.133Z,17.08
2023-02-28T18:06:06.704Z,20.30
2023-02-28T18:08:39.666Z,17.15
2023-02-28T18:11:18.255Z,14.88
2023-02-28T18:13:58.873Z,17.57
2023-02-28T18:16:31.123Z,19.25
2023-02-28T18:19:04.067Z,18.48
2023-02-28T18:21:36.227Z,21.00
2023-02-28T18:24:10.310Z,17.83
2023-02-28T18:26:43.793Z,22.17
2023-02-28T18:29:28.476Z,18.00
2023-02-28T18:32:02.594Z,20.65
2023-02-28T18:34:34.946Z,19.63
2023-02-28T18:37:08.914Z,17.83
2023-02-28T18:39:40.945Z,21.73
2023-02-28T18:42:15.583Z,21.52
2023-02-28T18:44:48.287Z,21.25
2023-02-28T18:47:21.166Z,20.98
2023-02-28T18:49:53.947Z,23.27
2023-02-28T18:52:25.856Z,20.07
2023-02-28T18:55:20.056Z,21.58
2023-02-28T18:57:51.961Z,21.05
2023-02-28T19:00:26.211Z,23.00
2023-02-28T19:02:58.882Z,23.35
2023-02-28T19:05:34.742Z,20.53
2023-02-28T19:08:06.669Z,21.15
2023-02-28T19:10:42.495Z,22.95
2023-02-28T19:13:14.431Z,22.33
2023-02-28T19:15:48.316Z,22.83
2023-02-28T19:18:20.896Z,21.30
2023-02-28T19:20:56.428Z,24.75
2023-02-28T19:23:31.169Z,28.27
2023-02-28T19:26:17.523Z,25.45
2023-02-28T19:28:50.092Z,23.40
2023-02-28T19:31:25.275Z,24.33
2023-02-28T19:33:59.069Z,22.30
2023-02-28T19:36:31.924Z,22.75
2023-02-28T19:39:05.997Z,24.50
2023-02-28T19:41:38.875Z,23.52
2023-02-28T19:44:11.707Z,20.30
2023-02-28T19:46:44.419Z,24.50
2023-02-28T19:49:18.905Z,25.02
2023-02-28T19:51:50.783Z,23.70
2023-02-28T19:54:25.156Z,25.92
2023-02-28T19:56:58.439Z,23.80
2023-02-28T19:59:39.511Z,25.17
2023-02-28T20:02:18.687Z,24.63
2023-02-28T20:04:52.210Z,30.10
2023-02-28T20:07:43.033Z,27.00
2023-02-28T20:10:15.016Z,21.40
2023-02-28T20:12:49.399Z,24.10
2023-02-28T20:15:21.290Z,26.38
2023-02-28T20:17:54.203Z,19.38
2023-02-28T20:20:27.506Z,21.23
2023-02-28T20:23:00.678Z,22.67
2023-02-28T20:25:32.841Z,22.85
2023-02-28T20:28:05.978Z,23.45
2023-02-28T20:30:39.573Z,22.02
2023-02-28T20:36:10.558Z,24.60
2023-02-28T20:39:04.578Z,23.55
2023-02-28T20:41:37.437Z,23.17
2023-02-28T20:44:14.094Z,22.35
2023-02-28T20:46:46.110Z,23.58
2023-02-28T20:49:19.206Z,24.20
2023-02-28T20:51:52.439Z,27.15
2023-02-28T20:54:25.209Z,24.98
2023-02-28T20:56:57.344Z,24.13
2023-02-28T20:59:30.206Z,24.05
2023-02-28T21:02:03.410Z,21.03
2023-02-28T21:04:35.320Z,24.45
2023-02-28T21:07:10.590Z,22.92
2023-02-28T21:09:43.232Z,21.15
2023-02-28T21:12:16.018Z,24.38
2023-02-28T21:14:48.993Z,23.40
2023-02-28T21:17:23.439Z,27.13
2023-02-28T21:19:55.361Z,23.80
2023-02-28T21:22:28.158Z,25.73
2023-02-28T21:25:00.492Z,24.20
2023-02-28T21:27:33.051Z,23.03
2023-02-28T21:30:06.097Z,25.80
2023-02-28T21:32:39.235Z,24.90
2023-02-28T21:35:11.534Z,21.42
2023-02-28T21:37:44.520Z,22.52
2023-02-28T21:40:16.960Z,23.43
2023-02-28T21:42:48.983Z,28.27
2023-02-28T21:45:21.758Z,29.77
2023-02-28T21:47:53.665Z,25.20
2023-02-28T21:50:26.445Z,28.65
2023-02-28T21:52:59.013Z,28.97
2023-02-28T21:55:35.476Z,28.15
2023-02-28T21:58:14.156Z,26.92
2023-02-28T22:00:47.086Z,30.80
2023-02-28T22:03:19.050Z,26.92
2023-02-28T22:05:52.215Z,25.50
2023-02-28T22:08:24.121Z,27.15
2023-02-28T22:11:02.587Z,28.60
2023-02-28T22:13:34.483Z,26.75
2023-02-28T22:16:17.122Z,25.27
2023-02-28T22:18:49.303Z,26.80
2023-02-28T22:21:24.572Z,27.60
2023-02-28T22:23:56.908Z,26.00
2023-02-28T22:26:29.190Z,29.48
2023-02-28T22:29:04.820Z,25.13
2023-02-28T22:31:37.591Z,25.03
2023-02-28T22:34:12.341Z,22.48
2023-02-28T22:36:44.318Z,25.45
2023-02-28T22:39:17.215Z,23.92
2023-02-28T22:41:49.122Z,27.25
2023-02-28T22:44:25.587Z,28.57
2023-02-28T22:46:57.497Z,28.33
2023-02-28T22:49:30.271Z,26.55
2023-02-28T22:52:02.251Z,29.45
2023-02-28T22:54:36.652Z,29.83
2023-02-28T22:57:08.960Z,29.13
2023-02-28T22:59:41.858Z,28.55
2023-02-28T23:02:14.139Z,26.95
2023-02-28T23:04:46.849Z,28.08
2023-02-28T23:07:18.765Z,26.55
2023-02-28T23:09:51.598Z,28.83
2023-02-28T23:12:24.218Z,26.33
2023-02-28T23:14:56.351Z,29.10
2023-02-28T23:17:32.101Z,26.63
2023-02-28T23:20:04.867Z,28.52
2023-02-28T23:22:37.195Z,27.77
2023-02-28T23:25:09.328Z,32.20
2023-02-28T23:27:42.256Z,25.85
2023-02-28T23:30:15.616Z,29.48
2023-02-28T23:33:09.971Z,27.52
2023-02-28T23:35:43.062Z,29.57
2023-02-28T23:38:15.001Z,27.17
2023-02-28T23:40:47.710Z,27.33
2023-02-28T23:43:20.067Z,30.40
2023-02-28T23:45:57.499Z,26.52
2023-02-28T23:48:30.279Z,27.47
2023-02-28T23:51:08.854Z,26.42
2023-02-28T23:53:43.672Z,32.22
2023-02-28T23:56:23.489Z,29.88
2023-02-28T23:58:56.129Z,29.98
